createdAt,value
2018-11-29T00:01:07.781Z,2.63
2018-11-29T00:03:36.057Z,2.50
2018-11-29T00:06:04.505Z,2.50
2018-11-29T00:08:32.818Z,2.97
2018-11-29T00:11:01.106Z,3.33
2018-11-29T00:13:29.426Z,2.83
2018-11-29T00:15:57.763Z,2.90
2018-11-29T00:18:26.238Z,3.47
2018-11-29T00:20:54.535Z,2.97
2018-11-29T00:23:22.811Z,2.90
2018-11-29T00:25:51.321Z,2.60
2018-11-29T00:28:19.625Z,3.10
2018-11-29T00:30:47.897Z,3.30
2018-11-29T00:33:16.202Z,3.30
2018-11-29T00:35:44.480Z,2.80
2018-11-29T00:38:12.769Z,2.90
2018-11-29T00:40:41.095Z,2.60
2018-11-29T00:43:09.376Z,2.90
2018-11-29T00:45:37.593Z,3.10
2018-11-29T00:48:05.873Z,2.70
2018-11-29T00:50:34.117Z,4.00
2018-11-29T00:53:02.447Z,3.33
2018-11-29T00:55:30.663Z,2.40
2018-11-29T00:57:58.967Z,2.73
2018-11-29T01:00:27.248Z,2.47
2018-11-29T01:02:55.530Z,2.53
2018-11-29T01:05:23.773Z,2.40
2018-11-29T01:07:52.020Z,2.77
2018-11-29T01:10:20.300Z,2.57
2018-11-29T01:12:48.994Z,2.87
2018-11-29T01:15:19.554Z,2.83
2018-11-29T01:17:48.615Z,2.77
2018-11-29T01:20:18.911Z,2.63
2018-11-29T01:22:47.235Z,3.20
2018-11-29T01:25:16.141Z,2.60
2018-11-29T01:27:45.443Z,2.67
2018-11-29T01:30:14.598Z,3.20
2018-11-29T01:32:42.921Z,2.87
2018-11-29T01:35:12.955Z,2.47
2018-11-29T01:37:41.277Z,3.03
2018-11-29T01:40:15.017Z,3.23
2018-11-29T01:42:44.262Z,3.40
2018-11-29T01:45:12.707Z,2.70
2018-11-29T01:47:40.999Z,3.20
2018-11-29T01:50:09.275Z,2.67
2018-11-29T01:52:37.563Z,2.30
2018-11-29T01:55:07.437Z,2.47
2018-11-29T01:57:35.763Z,3.03
2018-11-29T02:00:04.132Z,3.63
2018-11-29T02:02:32.438Z,2.13
2018-11-29T02:05:00.788Z,2.47
2018-11-29T02:07:29.063Z,3.10
2018-11-29T02:10:02.828Z,2.27
2018-11-29T02:12:31.127Z,2.40
2018-11-29T02:14:59.455Z,2.53
2018-11-29T02:17:27.729Z,3.00
2018-11-29T02:19:55.968Z,3.40
2018-11-29T02:22:24.530Z,3.00
2018-11-29T02:24:52.825Z,3.10
2018-11-29T02:27:21.153Z,2.77
2018-11-29T02:29:49.540Z,2.70
2018-11-29T02:32:17.815Z,2.70
2018-11-29T02:34:46.075Z,2.80
2018-11-29T02:37:14.350Z,2.37
2018-11-29T02:39:42.591Z,3.20
2018-11-29T02:42:10.867Z,2.53
2018-11-29T02:44:39.243Z,2.43
2018-11-29T02:47:07.549Z,3.20
2018-11-29T02:49:36.062Z,2.90
2018-11-29T02:52:04.625Z,3.40
2018-11-29T02:54:32.926Z,3.23
2018-11-29T02:57:01.259Z,3.13
2018-11-29T02:59:29.561Z,2.87
2018-11-29T03:01:57.930Z,3.07
2018-11-29T03:04:26.244Z,2.77
2018-11-29T03:06:54.509Z,3.30
2018-11-29T03:09:22.813Z,2.40
2018-11-29T03:11:51.148Z,2.83
2018-11-29T03:14:19.527Z,3.60
2018-11-29T03:16:47.797Z,3.20
2018-11-29T03:19:16.094Z,4.00
2018-11-29T03:21:44.393Z,3.60
2018-11-29T03:24:12.724Z,3.60
2018-11-29T03:26:41.040Z,3.03
2018-11-29T03:29:09.363Z,3.00
2018-11-29T03:31:37.663Z,3.60
2018-11-29T03:34:07.037Z,3.40
2018-11-29T03:36:35.732Z,3.23
2018-11-29T03:39:05.325Z,2.60
2018-11-29T03:41:33.592Z,3.60
2018-11-29T03:44:01.862Z,3.50
2018-11-29T03:46:30.104Z,3.57
2018-11-29T03:48:58.333Z,3.90
2018-11-29T03:51:26.778Z,3.13
2018-11-29T03:53:55.030Z,2.63
2018-11-29T03:56:23.323Z,3.17
2018-11-29T03:58:51.606Z,3.50
2018-11-29T04:01:19.901Z,3.50
2018-11-29T04:03:48.227Z,3.90
2018-11-29T04:06:16.516Z,3.40
2018-11-29T04:08:44.824Z,3.10
2018-11-29T04:11:13.163Z,3.70
2018-11-29T04:13:41.397Z,3.03
2018-11-29T04:16:09.662Z,2.60
2018-11-29T04:18:37.928Z,2.90
2018-11-29T04:21:06.265Z,3.07
2018-11-29T04:23:34.585Z,2.97
2018-11-29T04:26:02.833Z,3.30
2018-11-29T04:28:31.104Z,3.47
2018-11-29T04:30:59.365Z,4.07
2018-11-29T04:33:27.599Z,3.50
2018-11-29T04:35:55.842Z,3.33
2018-11-29T04:38:24.115Z,2.70
2018-11-29T04:40:52.670Z,2.70
2018-11-29T04:43:20.922Z,2.80
2018-11-29T04:46:00.629Z,2.80
2018-11-29T04:48:29.177Z,3.70
2018-11-29T04:50:57.464Z,3.30
2018-11-29T04:53:25.740Z,3.23
2018-11-29T04:55:54.069Z,3.97
2018-11-29T04:58:22.323Z,2.90
2018-11-29T05:00:50.646Z,2.97
2018-11-29T05:03:18.975Z,3.20
2018-11-29T05:05:47.246Z,3.70
2018-11-29T05:08:15.486Z,3.50
2018-11-29T05:10:43.823Z,2.73
2018-11-29T05:13:12.159Z,2.43
2018-11-29T05:15:40.480Z,2.80
2018-11-29T05:18:08.771Z,2.80
2018-11-29T05:20:37.031Z,2.80
2018-11-29T05:23:05.614Z,2.70
2018-11-29T05:25:33.883Z,2.87
2018-11-29T05:28:02.224Z,2.93
2018-11-29T05:30:30.480Z,2.30
2018-11-29T05:32:58.796Z,2.87
2018-11-29T05:35:27.189Z,2.30
2018-11-29T05:37:55.442Z,2.00
2018-11-29T05:40:23.761Z,2.57
2018-11-29T05:42:52.861Z,2.80
2018-11-29T05:45:21.095Z,2.50
2018-11-29T05:47:49.339Z,2.60
2018-11-29T05:50:17.547Z,2.87
2018-11-29T05:52:45.819Z,2.57
2018-11-29T05:55:14.071Z,3.03
2018-11-29T05:57:42.442Z,2.87
2018-11-29T06:00:13.723Z,2.93
2018-11-29T06:02:42.307Z,2.60
2018-11-29T06:05:11.778Z,3.40
2018-11-29T06:07:39.994Z,2.70
2018-11-29T06:10:08.512Z,4.07
2018-11-29T06:12:36.756Z,3.20
2018-11-29T06:15:07.598Z,2.50
2018-11-29T06:17:35.900Z,2.23
2018-11-29T06:20:04.465Z,2.10
2018-11-29T06:22:32.709Z,2.60
2018-11-29T06:25:01.029Z,2.60
2018-11-29T06:27:29.309Z,2.20
2018-11-29T06:29:57.631Z,2.33
2018-11-29T06:32:26.052Z,2.60
2018-11-29T06:34:57.429Z,3.00
2018-11-29T06:37:25.736Z,2.73
2018-11-29T06:39:54.053Z,2.50
2018-11-29T06:42:22.316Z,2.77
2018-11-29T06:44:50.589Z,3.03
2018-11-29T06:47:18.936Z,2.30
2018-11-29T06:49:47.289Z,2.83
2018-11-29T06:52:15.565Z,2.07
2018-11-29T06:54:43.833Z,2.73
2018-11-29T06:57:12.107Z,2.20
2018-11-29T06:59:40.416Z,2.50
2018-11-29T07:02:08.648Z,2.70
2018-11-29T07:04:37.021Z,3.10
2018-11-29T07:07:05.504Z,2.77
2018-11-29T07:09:33.808Z,3.30
2018-11-29T07:12:02.078Z,2.50
2018-11-29T07:14:30.350Z,2.17
2018-11-29T07:16:59.584Z,3.00
2018-11-29T07:19:28.173Z,3.13
2018-11-29T07:21:56.345Z,2.03
2018-11-29T07:24:25.013Z,2.83
2018-11-29T07:26:53.297Z,3.10
2018-11-29T07:29:21.540Z,2.20
2018-11-29T07:31:49.845Z,3.17
2018-11-29T07:34:18.136Z,2.40
2018-11-29T07:36:46.491Z,2.50
2018-11-29T07:39:14.764Z,2.80
2018-11-29T07:41:43.070Z,2.97
2018-11-29T07:44:11.415Z,3.00
2018-11-29T07:46:39.764Z,3.10
2018-11-29T07:49:08.052Z,2.40
2018-11-29T07:51:36.376Z,2.20
2018-11-29T07:54:04.749Z,2.40
2018-11-29T07:56:33.095Z,2.03
2018-11-29T07:59:01.343Z,1.73
2018-11-29T08:01:29.686Z,1.70
2018-11-29T08:03:57.959Z,1.90
2018-11-29T08:06:26.378Z,2.07
2018-11-29T08:08:54.738Z,2.60
2018-11-29T08:11:23.033Z,2.20
2018-11-29T08:13:51.295Z,1.83
2018-11-29T08:16:19.617Z,1.70
2018-11-29T08:18:47.885Z,2.20
2018-11-29T08:21:16.123Z,2.07
2018-11-29T08:23:44.483Z,1.90
2018-11-29T08:26:12.779Z,1.97
2018-11-29T08:28:41.098Z,2.07
2018-11-29T08:31:09.394Z,1.70
2018-11-29T08:33:37.711Z,2.07
2018-11-29T08:36:06.065Z,1.83
2018-11-29T08:38:34.368Z,1.97
2018-11-29T08:41:02.621Z,2.30
2018-11-29T08:43:31.025Z,1.80
2018-11-29T08:45:59.234Z,1.70
2018-11-29T08:48:27.549Z,1.70
2018-11-29T08:50:58.828Z,1.50
2018-11-29T08:53:27.254Z,2.23
2018-11-29T08:55:55.556Z,1.90
2018-11-29T08:58:23.864Z,1.80
2018-11-29T09:00:52.177Z,1.90
2018-11-29T09:03:20.529Z,1.93
2018-11-29T09:05:48.850Z,1.73
2018-11-29T09:08:17.060Z,2.07
2018-11-29T09:10:45.609Z,1.77
2018-11-29T09:13:13.665Z,2.70
2018-11-29T09:15:41.908Z,2.33
2018-11-29T09:18:10.173Z,2.30
2018-11-29T09:20:38.418Z,2.70
2018-11-29T09:23:07.080Z,2.57
2018-11-29T09:25:35.566Z,2.50
2018-11-29T09:28:03.889Z,2.30
2018-11-29T09:30:32.123Z,2.27
2018-11-29T09:33:00.434Z,2.60
2018-11-29T09:35:28.760Z,2.13
2018-11-29T09:37:57.006Z,3.10
2018-11-29T09:40:25.337Z,2.90
2018-11-29T09:42:53.735Z,2.60
2018-11-29T09:45:22.844Z,3.13
2018-11-29T09:47:53.293Z,2.20
2018-11-29T09:50:21.712Z,2.03
2018-11-29T09:52:50.026Z,2.67
2018-11-29T09:55:18.416Z,2.57
2018-11-29T09:57:47.737Z,2.50
2018-11-29T10:00:27.743Z,2.70
2018-11-29T10:03:02.864Z,2.07
2018-11-29T10:05:34.167Z,2.30
2018-11-29T10:08:02.546Z,2.13
2018-11-29T10:10:30.816Z,2.27
2018-11-29T10:12:59.062Z,2.43
2018-11-29T10:15:27.435Z,2.30
2018-11-29T10:17:55.703Z,2.50
2018-11-29T10:20:24.035Z,2.10
2018-11-29T10:22:52.324Z,2.50
2018-11-29T10:25:20.632Z,2.40
2018-11-29T10:27:50.940Z,3.00
2018-11-29T10:31:22.554Z,2.80
2018-11-29T10:33:50.821Z,1.93
2018-11-29T10:36:19.113Z,2.40
2018-11-29T10:38:47.370Z,2.67
2018-11-29T10:41:15.674Z,2.20
2018-11-29T10:43:43.976Z,2.50
2018-11-29T10:46:12.185Z,2.87
2018-11-29T10:48:40.440Z,2.00
2018-11-29T10:51:08.740Z,3.40
2018-11-29T10:53:38.104Z,2.60
2018-11-29T10:56:05.402Z,2.40
2018-11-29T10:58:33.796Z,2.33
2018-11-29T11:01:07.386Z,2.57
2018-11-29T11:03:35.724Z,2.77
2018-11-29T11:06:04.017Z,2.70
2018-11-29T11:08:32.303Z,3.80
2018-11-29T11:11:04.802Z,2.80
2018-11-29T11:13:33.116Z,2.53
2018-11-29T11:16:01.486Z,2.60
2018-11-29T11:18:29.810Z,3.43
2018-11-29T11:20:58.094Z,3.23
2018-11-29T11:23:26.422Z,2.73
2018-11-29T11:25:54.826Z,2.80
2018-11-29T11:28:23.155Z,3.10
2018-11-29T11:30:51.463Z,4.03
2018-11-29T11:33:19.735Z,3.53
2018-11-29T11:35:48.022Z,2.47
2018-11-29T11:38:16.332Z,3.70
2018-11-29T11:40:44.607Z,2.90
2018-11-29T11:43:12.934Z,2.90
2018-11-29T11:45:41.249Z,2.97
2018-11-29T11:48:09.495Z,3.87
2018-11-29T11:50:37.849Z,3.30
2018-11-29T11:53:07.419Z,3.40
2018-11-29T11:55:36.074Z,3.20
2018-11-29T11:58:04.416Z,3.60
2018-11-29T12:00:32.914Z,3.10
2018-11-29T12:03:03.900Z,3.07
2018-11-29T12:05:32.134Z,3.00
2018-11-29T12:08:00.414Z,3.50
2018-11-29T12:10:28.691Z,3.07
2018-11-29T12:12:56.955Z,2.40
2018-11-29T12:15:25.261Z,3.97
2018-11-29T12:17:53.545Z,2.23
2018-11-29T12:20:21.848Z,2.47
2018-11-29T12:22:50.122Z,2.83
2018-11-29T12:25:19.517Z,3.70
2018-11-29T12:27:47.879Z,3.23
2018-11-29T12:30:35.274Z,3.73
2018-11-29T12:33:04.482Z,3.13
2018-11-29T12:35:32.797Z,3.10
2018-11-29T12:38:01.095Z,2.80
2018-11-29T12:40:29.518Z,3.50
2018-11-29T12:42:57.878Z,3.33
2018-11-29T12:45:26.275Z,3.20
2018-11-29T12:47:54.526Z,6.23
2018-11-29T12:50:23.990Z,2.20
2018-11-29T12:52:52.360Z,2.90
2018-11-29T12:55:21.631Z,3.70
2018-11-29T12:58:04.486Z,2.70
2018-11-29T13:00:20.213Z,2.97
2018-11-29T13:02:54.643Z,2.70
2018-11-29T13:05:22.938Z,2.90
2018-11-29T13:07:51.242Z,3.10
2018-11-29T13:10:22.444Z,3.00
2018-11-29T13:12:50.817Z,3.87
2018-11-29T13:15:21.628Z,2.70
2018-11-29T13:17:49.908Z,3.27
2018-11-29T13:20:18.251Z,4.27
2018-11-29T13:22:46.610Z,3.23
2018-11-29T13:25:16.919Z,4.00
2018-11-29T13:27:45.245Z,3.60
2018-11-29T13:30:17.509Z,2.90
2018-11-29T13:32:45.973Z,3.53
2018-11-29T13:35:19.989Z,3.80
2018-11-29T13:37:52.896Z,3.37
2018-11-29T13:40:21.206Z,3.60
2018-11-29T13:42:49.482Z,3.57
2018-11-29T13:45:17.731Z,3.27
2018-11-29T13:47:46.020Z,5.20
2018-11-29T13:50:15.371Z,4.50
2018-11-29T13:52:43.803Z,3.80
2018-11-29T13:55:12.926Z,3.10
2018-11-29T13:57:42.007Z,4.77
2018-11-29T14:00:13.516Z,3.13
2018-11-29T14:02:41.845Z,3.80
2018-11-29T14:05:10.693Z,3.90
2018-11-29T14:07:39.100Z,3.87
2018-11-29T14:10:12.771Z,3.20
2018-11-29T14:12:41.065Z,2.90
2018-11-29T14:15:21.059Z,3.53
2018-11-29T14:17:49.379Z,3.03
2018-11-29T14:20:17.713Z,2.57
2018-11-29T14:22:45.978Z,2.20
2018-11-29T14:25:15.095Z,2.10
2018-11-29T14:27:44.686Z,2.90
2018-11-29T14:30:18.005Z,4.20
2018-11-29T14:32:46.351Z,3.00
2018-11-29T14:35:14.612Z,2.70
2018-11-29T14:37:42.965Z,2.57
2018-11-29T14:40:16.240Z,3.03
2018-11-29T14:42:44.491Z,2.20
2018-11-29T14:45:13.883Z,2.50
2018-11-29T14:47:42.137Z,2.20
2018-11-29T14:50:12.948Z,2.17
2018-11-29T14:52:41.215Z,2.60
2018-11-29T14:55:10.506Z,3.40
2018-11-29T14:57:38.912Z,2.33
2018-11-29T15:00:09.418Z,3.00
2018-11-29T15:02:37.712Z,3.40
2018-11-29T15:05:09.626Z,2.17
2018-11-29T15:07:38.000Z,3.03
2018-11-29T15:10:07.692Z,2.27
2018-11-29T15:12:36.083Z,2.03
2018-11-29T15:15:04.505Z,1.77
2018-11-29T15:17:32.846Z,2.23
2018-11-29T15:20:01.132Z,2.50
2018-11-29T15:22:29.491Z,2.30
2018-11-29T15:24:57.773Z,3.40
2018-11-29T15:27:26.288Z,3.40
2018-11-29T15:29:54.554Z,2.27
2018-11-29T15:32:22.848Z,2.57
2018-11-29T15:34:51.106Z,2.43
2018-11-29T15:37:19.432Z,2.77
2018-11-29T15:39:47.719Z,2.47
2018-11-29T15:42:15.971Z,3.07
2018-11-29T15:44:44.264Z,2.57
2018-11-29T15:47:12.577Z,2.60
2018-11-29T15:49:40.915Z,2.43
2018-11-29T15:52:09.295Z,2.57
2018-11-29T15:54:37.619Z,2.43
2018-11-29T15:57:05.845Z,3.07
2018-11-29T15:59:34.158Z,3.30
2018-11-29T16:02:02.445Z,2.90
2018-11-29T16:04:30.781Z,2.47
2018-11-29T16:06:59.049Z,2.20
2018-11-29T16:09:27.357Z,2.70
2018-11-29T16:11:55.612Z,2.03
2018-11-29T16:14:23.884Z,2.60
2018-11-29T16:16:52.254Z,2.17
2018-11-29T16:19:20.468Z,2.70
2018-11-29T16:21:51.322Z,2.40
2018-11-29T16:24:17.192Z,2.47
2018-11-29T16:26:45.431Z,2.53
2018-11-29T16:29:13.730Z,2.47
2018-11-29T16:31:41.994Z,2.37
2018-11-29T16:34:10.310Z,1.80
2018-11-29T16:36:38.619Z,2.37
2018-11-29T16:39:07.862Z,2.13
2018-11-29T16:41:36.148Z,2.43
2018-11-29T16:44:04.564Z,1.97
2018-11-29T16:46:32.857Z,2.10
2018-11-29T16:49:02.907Z,1.50
2018-11-29T16:51:29.393Z,2.03
2018-11-29T16:53:57.671Z,1.80
2018-11-29T16:56:26.331Z,2.10
2018-11-29T16:58:54.416Z,1.80
2018-11-29T17:01:22.729Z,2.30
2018-11-29T17:03:50.983Z,2.07
2018-11-29T17:06:19.316Z,2.20
2018-11-29T17:08:47.601Z,2.00
2018-11-29T17:11:15.878Z,1.90
2018-11-29T17:13:44.222Z,2.47
2018-11-29T17:16:12.566Z,1.83
2018-11-29T17:18:40.802Z,2.17
2018-11-29T17:21:09.083Z,1.90
2018-11-29T17:23:37.435Z,2.00
2018-11-29T17:26:05.720Z,1.83
2018-11-29T17:28:34.046Z,1.90
2018-11-29T17:31:02.379Z,1.67
2018-11-29T17:33:30.626Z,2.10
2018-11-29T17:35:58.934Z,2.10
2018-11-29T17:38:27.256Z,1.90
2018-11-29T17:40:55.583Z,2.20
2018-11-29T17:43:23.876Z,1.90
2018-11-29T17:45:52.136Z,2.23
2018-11-29T17:48:20.526Z,1.80
2018-11-29T17:50:48.886Z,1.90
2018-11-29T17:53:17.141Z,2.20
2018-11-29T17:55:45.399Z,2.10
2018-11-29T17:58:14.874Z,2.47
2018-11-29T18:00:44.784Z,2.17
2018-11-29T18:03:14.258Z,1.80
2018-11-29T18:05:42.620Z,1.93
2018-11-29T18:08:10.945Z,1.87
2018-11-29T18:10:40.851Z,2.27
2018-11-29T18:13:13.337Z,2.37
2018-11-29T18:15:41.696Z,2.07
2018-11-29T18:18:10.106Z,2.43
2018-11-29T18:20:38.637Z,2.73
2018-11-29T18:23:08.026Z,2.30
2018-11-29T18:25:36.436Z,2.37
2018-11-29T18:28:05.126Z,2.40
2018-11-29T18:30:37.527Z,1.60
2018-11-29T18:33:06.789Z,1.83
2018-11-29T18:35:35.592Z,1.93
2018-11-29T18:38:03.861Z,1.90
2018-11-29T18:40:32.279Z,1.60
2018-11-29T18:43:00.727Z,2.00
2018-11-29T18:45:29.107Z,1.40
2018-11-29T18:47:57.355Z,1.97
2018-11-29T18:50:26.361Z,1.83
2018-11-29T18:52:54.796Z,1.60
2018-11-29T18:55:24.310Z,1.57
2018-11-29T18:57:53.215Z,1.50
2018-11-29T19:00:24.169Z,1.87
2018-11-29T19:02:57.000Z,1.70
2018-11-29T19:05:20.958Z,1.50
2018-11-29T19:07:50.001Z,2.40
2018-11-29T19:10:18.834Z,2.30
2018-11-29T19:12:56.587Z,1.57
2018-11-29T19:15:25.007Z,1.30
2018-11-29T19:17:53.360Z,1.77
2018-11-29T19:20:21.714Z,2.20
2018-11-29T19:22:50.033Z,1.57
2018-11-29T19:25:19.342Z,2.30
2018-11-29T19:27:47.585Z,1.83
2018-11-29T19:30:31.558Z,2.20
2018-11-29T19:33:01.911Z,1.40
2018-11-29T19:35:30.274Z,1.90
2018-11-29T19:37:58.619Z,2.10
2018-11-29T19:40:27.084Z,1.40
2018-11-29T19:42:55.462Z,1.50
2018-11-29T19:45:23.842Z,1.73
2018-11-29T19:47:52.134Z,1.80
2018-11-29T19:50:20.581Z,2.00
2018-11-29T19:52:53.579Z,1.47
2018-11-29T19:55:23.416Z,1.70
2018-11-29T19:57:51.919Z,1.63
2018-11-29T20:00:20.553Z,1.80
2018-11-29T20:02:50.052Z,1.73
2018-11-29T20:05:18.340Z,1.60
2018-11-29T20:07:46.664Z,1.47
2018-11-29T20:10:16.141Z,2.00
2018-11-29T20:12:45.071Z,2.20
2018-11-29T20:15:16.801Z,1.87
2018-11-29T20:17:45.138Z,1.70
2018-11-29T20:20:13.614Z,1.67
2018-11-29T20:22:42.759Z,1.40
2018-11-29T20:25:13.176Z,2.00
2018-11-29T20:27:41.573Z,1.80
2018-11-29T20:30:15.117Z,2.00
2018-11-29T20:32:43.494Z,2.00
2018-11-29T20:35:12.521Z,1.60
2018-11-29T20:37:40.980Z,1.93
2018-11-29T20:40:12.235Z,1.90
2018-11-29T20:42:40.600Z,1.63
2018-11-29T20:45:13.321Z,2.30
2018-11-29T20:47:41.726Z,2.17
2018-11-29T20:50:14.831Z,2.00
2018-11-29T20:52:41.364Z,2.13
2018-11-29T20:55:11.488Z,2.00
2018-11-29T20:57:39.786Z,2.10
2018-11-29T21:00:10.649Z,1.90
2018-11-29T21:02:39.275Z,1.80
2018-11-29T21:05:09.612Z,1.93
2018-11-29T21:07:38.007Z,2.10
2018-11-29T21:10:11.041Z,2.00
2018-11-29T21:12:39.385Z,1.60
2018-11-29T21:15:07.733Z,2.30
2018-11-29T21:17:36.019Z,1.73
2018-11-29T21:20:05.132Z,2.10
2018-11-29T21:22:33.441Z,1.90
2018-11-29T21:25:01.849Z,2.33
2018-11-29T21:27:30.251Z,2.73
2018-11-29T21:29:58.599Z,2.30
2018-11-29T21:32:27.036Z,1.60
2018-11-29T21:34:55.396Z,2.43
2018-11-29T21:37:23.710Z,2.10
2018-11-29T21:39:52.081Z,1.97
2018-11-29T21:42:20.387Z,1.60
2018-11-29T21:44:48.751Z,1.97
2018-11-29T21:47:17.022Z,2.03
2018-11-29T21:49:45.276Z,1.83
2018-11-29T21:52:13.676Z,1.80
2018-11-29T21:54:42.046Z,1.50
2018-11-29T21:57:10.539Z,1.50
2018-11-29T21:59:38.942Z,1.57
2018-11-29T22:02:07.776Z,1.97
2018-11-29T22:04:36.181Z,1.40
2018-11-29T22:07:04.649Z,1.80
2018-11-29T22:09:33.134Z,2.10
2018-11-29T22:12:01.565Z,1.77
2018-11-29T22:14:29.887Z,1.40
2018-11-29T22:16:58.331Z,1.17
2018-11-29T22:19:26.810Z,1.63
2018-11-29T22:21:55.225Z,1.50
2018-11-29T22:24:23.558Z,1.80
2018-11-29T22:26:52.031Z,2.00
2018-11-29T22:29:20.510Z,1.50
2018-11-29T22:31:48.795Z,1.50
2018-11-29T22:34:17.100Z,1.40
2018-11-29T22:36:45.582Z,1.10
2018-11-29T22:39:13.904Z,1.30
2018-11-29T22:41:42.456Z,1.23
2018-11-29T22:44:10.807Z,1.20
2018-11-29T22:46:39.181Z,1.30
2018-11-29T22:49:07.502Z,1.47
2018-11-29T22:51:35.772Z,1.60
2018-11-29T22:54:04.065Z,1.67
2018-11-29T22:56:32.383Z,1.47
2018-11-29T22:59:00.617Z,1.43
2018-11-29T23:01:29.321Z,1.10
2018-11-29T23:03:57.726Z,1.30
2018-11-29T23:06:26.183Z,1.40
2018-11-29T23:08:54.517Z,1.20
2018-11-29T23:11:22.769Z,1.37
2018-11-29T23:13:51.147Z,1.10
2018-11-29T23:16:19.402Z,1.40
2018-11-29T23:18:47.754Z,1.87
2018-11-29T23:21:16.153Z,1.40
2018-11-29T23:23:44.468Z,1.30
2018-11-29T23:26:12.766Z,1.30
2018-11-29T23:28:41.046Z,1.60
2018-11-29T23:31:09.333Z,1.57
2018-11-29T23:33:37.661Z,1.37
2018-11-29T23:36:06.199Z,2.17
2018-11-29T23:38:34.520Z,2.10
2018-11-29T23:41:02.776Z,2.33
2018-11-29T23:43:31.107Z,1.53
2018-11-29T23:45:59.398Z,2.13
2018-11-29T23:48:27.708Z,2.10
2018-11-29T23:50:55.990Z,1.50
2018-11-29T23:53:24.274Z,1.87
2018-11-29T23:55:52.585Z,1.67
2018-11-29T23:58:20.956Z,1.90
